Latest Weather Observations for Parawa West

IDS60801

Issued at 11:31 am CDT Tuesday 21 February 2017 (issued every 30 minutes, with the page automatically refreshed every 10 minutes)

About weather observations | Map of weather stations | Latest weather observations for SA | Other Formats
Station Details ID: 023875 Name: SECOND VALLEY FOREST AWS Lat: -35.57 Lon: 138.29 Height: 341.0 m
Data from the previous 72 hours. | See also: Recent months at Parawa West
Date/Time
CDT
Temp
°C
App
Temp
°C
Dew
Point
°C
Rel
Hum
%
Delta-T
°C
Wind Press
QNH
hPa
Press
MSL
hPa
Rain since
9am
mm
Dir  Spd
km/h
Gust
km/h
Spd
kts
Gust
kts
21/11:00am 19.2 17.1 8.2 49 5.8 NW 9 20 5 11 1019.0 1018.0 0.0
21/10:30am 18.5 16.9 8.7 53 5.2 NW 7 13 4 7 1018.9 1017.9 0.0
21/10:00am 17.6 15.9 8.2 54 4.9 NNW 7 15 4 8 1019.0 1018.0 0.0
21/09:30am 15.8 14.7 8.3 61 3.9 NE 4 11 2 6 1018.9 1017.9 0.0
21/09:00am 14.7 13.4 7.5 62 3.6 ENE 4 9 2 5 1018.9 1017.9 0.0
21/08:30am 13.1 11.2 7.5 69 2.8 NE 7 15 4 8 1019.1 1018.1 0.0
21/08:00am 11.9 9.1 7.0 72 2.4 NE 11 17 6 9 1018.7 1017.7 0.0
21/07:30am 11.1 8.0 7.2 77 1.9 NE 13 19 7 10 1018.3 1017.2 0.0
21/07:00am 10.7 6.9 7.6 81 1.5 ENE 17 22 9 12 1018.0 1016.9 0.0
21/06:30am 10.8 6.8 8.2 84 1.3 ENE 19 24 10 13 1018.1 1017.0 0.0
21/06:00am 10.9 7.0 8.7 86 1.1 ENE 19 26 10 14 1018.1 1017.0 0.0
21/05:30am 11.0 7.1 8.8 86 1.1 ENE 19 26 10 14 1018.0 1016.9 0.0
21/05:00am 11.1 7.2 8.5 84 1.3 ENE 19 24 10 13 1017.9 1016.8 0.0
21/04:30am 11.1 7.1 8.3 83 1.4 ENE 19 24 10 13 1017.9 1016.8 0.0
21/04:00am 11.2 7.5 8.1 81 1.5 ENE 17 24 9 13 1018.1 1017.0 0.0
21/03:30am 11.1 7.9 8.5 84 1.3 ENE 15 19 8 10 1018.2 1017.1 0.0
21/03:00am 10.9 8.0 8.3 84 1.3 E 13 19 7 10 1018.2 1017.1 0.0
21/02:30am 10.7 7.4 8.1 84 1.3 E 15 19 8 10 1018.2 1017.1 0.0
21/02:00am 10.7 7.8 8.1 84 1.3 E 13 19 7 10 1018.5 1017.5 0.0
21/01:30am 10.8 7.9 8.0 83 1.4 ESE 13 17 7 9 1018.8 1017.8 0.0
21/01:00am 10.8 7.8 7.9 82 1.4 ESE 13 17 7 9 1018.9 1017.9 0.0
21/12:30am 11.1 7.4 8.1 82 1.5 ESE 17 22 9 12 1019.1 1018.1 0.0
21/12:00am 11.4 7.8 8.3 81 1.5 ESE 17 20 9 11 1019.5 1018.5 0.0
 
Date/Time
CDT
Temp
°C
App
Temp
°C
Dew
Point
°C
Rel
Hum
%
Delta-T
°C
Wind Press
QNH
hPa
Press
MSL
hPa
Rain since
9am
mm
Dir  Spd
km/h
Gust
km/h
Spd
kts
Gust
kts
20/11:30pm 11.1 8.2 8.1 82 1.5 SE 13 17 7 9 1019.9 1018.9 0.0
20/11:00pm 11.4 8.6 8.4 82 1.5 ESE 13 17 7 9 1019.7 1018.7 0.0
20/10:30pm 11.3 8.1 8.3 82 1.5 SE 15 17 8 9 1019.7 1018.7 0.0
20/10:00pm 11.4 8.2 8.3 81 1.6 SE 15 22 8 12 1019.6 1018.6 0.0
20/09:30pm 11.6 8.4 8.3 80 1.6 SE 15 20 8 11 1019.4 1018.4 0.0
20/09:00pm 11.7 8.0 8.0 78 1.8 SE 17 20 9 11 1019.1 1018.1 0.0
20/08:30pm 11.9 8.5 7.6 75 2.1 SE 15 20 8 11 1019.1 1018.1 0.0
20/08:00pm 12.6 9.2 7.7 72 2.4 SE 15 20 8 11 1018.8 1017.8 0.0
20/07:30pm 13.3 9.5 7.5 68 2.9 SSE 17 24 9 13 1018.8 1017.8 0.0
20/07:00pm 13.9 10.2 7.9 67 3.0 SSE 17 26 9 14 1018.5 1017.5 0.0
20/06:30pm 14.3 11.0 8.0 66 3.2 SE 15 20 8 11 1018.5 1017.5 0.0
20/06:00pm 14.8 11.7 8.7 67 3.1 SSE 15 20 8 11 1018.1 1017.0 0.0
20/05:30pm 15.1 11.7 9.0 67 3.2 SSE 17 24 9 13 1017.8 1016.7 0.0
20/05:00pm 14.9 11.6 8.2 64 3.4 SSE 15 24 8 13 1018.0 1016.9 0.0
20/04:30pm 15.8 12.7 9.0 64 3.5 SE 15 24 8 13 1018.0 1016.9 0.0
20/04:00pm 15.4 11.9 8.6 64 3.5 SSE 17 24 9 13 1018.0 1016.9 0.0
20/03:30pm 15.0 11.3 7.8 62 3.6 SSE 17 22 9 12 1018.2 1017.1 0.0
20/03:00pm 15.7 12.1 8.4 62 3.8 SSE 17 24 9 13 1018.3 1017.2 0.0
20/02:30pm 15.4 11.9 8.6 64 3.5 SSE 17 28 9 15 1018.4 1017.4 0.0
20/02:00pm 14.8 11.7 8.7 67 3.1 S 15 22 8 12 1018.5 1017.5 0.0
20/01:30pm 15.3 12.6 9.0 66 3.3 SSE 13 22 7 12 1018.6 1017.6 0.0
20/01:00pm 15.7 13.4 9.1 65 3.5 S 11 19 6 10 1018.7 1017.7 0.0
20/12:30pm 14.5 11.7 8.5 67 3.1 S 13 19 7 10 1018.7 1017.7 0.0
20/12:00pm 14.7 12.9 9.3 70 2.8 S 9 17 5 9 1018.9 1017.9 0.0
20/11:30am 14.2 11.5 8.8 70 2.8 SSE 13 19 7 10 1019.0 1018.0 0.0
20/11:00am 14.5 11.6 8.0 65 3.3 SE 13 19 7 10 1019.1 1018.1 0.0
20/10:30am 14.7 12.1 9.3 70 2.8 SE 13 17 7 9 1019.1 1018.1 0.0
20/10:00am 14.4 12.0 8.8 69 2.9 SSE 11 19 6 10 1019.1 1018.1 0.0
20/09:30am 13.6 10.7 8.2 70 2.7 SE 13 17 7 9 1019.0 1018.0 0.0
20/09:00am 12.9 10.4 8.0 72 2.5 SSE 11 15 6 8 1018.7 1017.7 3.4
20/08:30am 12.7 10.2 8.4 75 2.2 SSE 11 15 6 8 1018.4 1017.4 3.4
20/08:00am 12.2 10.1 8.3 77 2.0 SSE 9 15 5 8 1018.2 1017.1 3.4
20/07:30am 11.8 10.3 8.5 80 1.7 SE 6 7 3 4 1017.9 1016.8 3.4
20/07:00am 11.8 10.2 8.6 81 1.6 SSE 7 13 4 7 1017.5 1016.4 3.4
20/06:30am 11.7 10.1 8.6 81 1.6 S 7 11 4 6 1017.4 1016.3 3.4
20/06:00am 11.9 9.1 8.6 80 1.7 SSE 13 17 7 9 1016.9 1015.9 3.4
20/05:30am 11.9 10.0 9.1 83 1.4 S 9 15 5 8 1016.7 1015.7 3.4
20/05:00am 11.9 10.4 9.1 83 1.4 S 7 11 4 6 1016.4 1015.4 3.4
20/04:30am 11.6 9.7 9.2 85 1.2 S 9 11 5 6 1016.4 1015.4 3.4
20/04:00am 11.5 10.3 10.4 93 0.6 SSW 7 9 4 5 1016.4 1015.4 3.4
20/03:30am 11.2 9.7 10.6 96 0.3 SW 9 17 5 9 1016.5 1015.5 3.4
20/03:00am 11.5 10.2 10.1 91 0.7 SSW 7 13 4 7 1016.6 1015.6 3.4
20/02:30am 11.6 10.3 9.9 89 0.9 S 7 13 4 7 1016.6 1015.6 3.2
20/02:00am 11.7 8.9 10.1 90 0.8 S 15 20 8 11 1016.7 1015.7 3.2
20/01:30am 11.9 10.2 10.0 88 1.0 SSW 9 15 5 8 1016.8 1015.8 3.2
20/01:00am 11.5 10.2 9.8 89 0.9 SSW 7 13 4 7 1017.0 1016.0 3.2
20/12:30am 11.8 8.9 9.5 86 1.2 SSW 15 22 8 12 1017.0 1016.0 3.0
20/12:00am 11.9 9.4 9.8 87 1.1 SSW 13 19 7 10 1017.0 1016.0 3.0
 
Date/Time
CDT
Temp
°C
App
Temp
°C
Dew
Point
°C
Rel
Hum
%
Delta-T
°C
Wind Press
QNH
hPa
Press
MSL
hPa
Rain since
9am
mm
Dir  Spd
km/h
Gust
km/h
Spd
kts
Gust
kts
19/11:30pm 12.0 9.6 9.9 87 1.1 SSW 13 22 7 12 1017.3 1016.2 3.0
19/11:00pm 11.7 9.3 10.1 90 0.8 SSW 13 20 7 11 1017.4 1016.3 3.0
19/10:30pm 11.9 10.1 11.0 94 0.5 SSW 11 15 6 8 1017.4 1016.3 3.0
19/10:00pm 11.8 8.9 10.9 94 0.5 SSW 17 26 9 14 1017.4 1016.3 3.0
19/09:30pm 11.8 10.5 11.3 97 0.3 SW 9 13 5 7 1016.9 1015.9 3.0
19/09:00pm 11.8 9.3 11.0 95 0.4 SSW 15 24 8 13 1016.8 1015.8 2.4
19/08:30pm 12.3 10.3 10.2 87 1.1 SW 11 19 6 10 1016.6 1015.6 1.4
19/08:00pm 12.0 10.2 10.7 92 0.7 SW 11 19 6 10 1016.6 1015.6 1.4
19/07:30pm 12.4 9.6 10.1 86 1.2 SW 15 24 8 13 1016.4 1015.4 1.4
19/07:00pm 11.9 9.3 10.6 92 0.7 SW 15 22 8 12 1016.3 1015.3 1.4
19/06:30pm 12.1 8.5 10.7 91 0.7 SW 20 35 11 19 1016.2 1015.2 1.4
19/06:00pm 13.7 10.3 11.2 85 1.3 SSW 20 32 11 17 1015.9 1014.9 1.2
19/05:30pm 13.3 10.5 11.4 88 1.0 SSW 17 24 9 13 1016.0 1015.0 1.2
19/05:00pm 14.6 12.2 11.4 81 1.7 SW 15 24 8 13 1016.0 1015.0 1.2
19/04:30pm 13.8 10.4 10.6 81 1.7 SW 19 30 10 16 1016.0 1015.0 1.2
19/04:00pm 14.1 11.9 10.9 81 1.7 SW 13 30 7 16 1016.0 1015.0 1.2
19/03:30pm 13.2 10.5 11.6 90 0.9 SSW 17 32 9 17 1016.2 1015.2 1.2
19/03:00pm 14.4 10.8 10.4 77 2.1 SW 20 30 11 16 1016.2 1015.2 0.8
19/02:30pm 14.5 10.2 9.3 71 2.7 SW 22 37 12 20 1016.4 1015.4 0.8
19/02:00pm 14.6 11.0 10.0 74 2.4 SW 19 32 10 17 1016.5 1015.5 0.8
19/01:30pm 14.7 11.1 10.7 77 2.1 SW 20 33 11 18 1016.7 1015.7 0.8
19/01:00pm 13.6 10.4 11.1 85 1.3 SSW 19 32 10 17 1016.8 1015.8 0.8
19/12:30pm 13.4 10.9 11.1 86 1.2 SW 15 26 8 14 1017.0 1016.0 0.4
19/12:00pm 13.0 9.9 10.4 84 1.4 WSW 17 28 9 15 1017.3 1016.2 0.4
19/11:30am 13.3 11.2 11.0 86 1.2 WSW 13 22 7 12 1017.3 1016.2 0.4
19/11:00am 13.5 11.9 11.4 87 1.1 WSW 11 17 6 9 1017.4 1016.3 0.0
19/10:30am 13.4 10.6 10.0 80 1.8 SW 15 28 8 15 1017.4 1016.3 0.0
19/10:00am 13.3 11.3 10.1 81 1.7 WSW 11 19 6 10 1017.3 1016.2 0.0
19/09:30am 12.7 10.1 9.2 79 1.8 WSW 13 24 7 13 1017.0 1016.0 0.0
19/09:00am 12.4 9.8 9.2 81 1.6 WSW 13 20 7 11 1017.0 1016.0 3.8
19/08:30am 12.1 11.0 10.5 90 0.8 SW 7 15 4 8 1016.7 1015.7 3.8
19/08:00am 11.3 9.2 9.9 91 0.7 SW 11 20 6 11 1016.6 1015.6 3.8
19/07:30am 11.8 10.2 8.8 82 1.5 WSW 7 13 4 7 1016.5 1015.5 3.6
19/07:00am 11.4 9.6 9.5 88 1.0 SW 9 13 5 7 1016.3 1015.3 3.6
19/06:30am 11.1 9.3 9.4 89 0.9 WSW 9 13 5 7 1016.0 1015.0 3.6
19/06:00am 11.0 9.2 9.4 90 0.8 W 9 13 5 7 1015.9 1014.9 3.6
19/05:30am 11.2 10.0 9.5 89 0.9 WSW 6 7 3 4 1015.9 1014.9 3.6
19/05:00am 11.2 9.7 9.1 87 1.1 SW 7 15 4 8 1015.8 1014.8 3.6
19/04:30am 11.3 8.2 9.0 86 1.2 SSW 15 24 8 13 1016.0 1015.0 3.6
19/04:00am 11.4 9.1 9.1 86 1.2 SW 11 20 6 11 1016.1 1015.1 3.6
19/03:30am 11.3 8.7 9.2 87 1.1 SW 13 24 7 13 1016.0 1015.0 3.6
19/03:00am 11.1 9.3 9.5 90 0.8 WSW 9 17 5 9 1016.1 1015.1 3.6
19/02:30am 10.6 9.2 9.4 92 0.6 SW 7 11 4 6 1016.4 1015.4 3.6
19/02:00am 10.5 8.3 9.3 92 0.6 SW 11 22 6 12 1016.7 1015.7 3.6
19/01:30am 11.3 9.2 8.3 82 1.5 SW 9 15 5 8 1016.9 1015.9 3.4
19/01:00am 10.9 9.2 8.3 84 1.3 SW 7 11 4 6 1017.1 1016.1 3.4
19/12:30am 11.2 9.4 9.3 88 1.0 SW 9 13 5 7 1017.5 1016.4 3.4
19/12:00am 10.9 9.0 9.0 88 1.0 SW 9 19 5 10 1017.4 1016.3 3.4
 
Date/Time
CDT
Temp
°C
App
Temp
°C
Dew
Point
°C
Rel
Hum
%
Delta-T
°C
Wind Press
QNH
hPa
Press
MSL
hPa
Rain since
9am
mm
Dir  Spd
km/h
Gust
km/h
Spd
kts
Gust
kts
18/11:30pm 10.5 8.5 8.6 88 0.9 SW 9 13 5 7 1017.4 1016.3 3.4
18/11:00pm 10.4 6.6 9.0 91 0.7 SW 19 30 10 16 1017.6 1016.5 3.4
18/10:30pm 10.8 9.2 8.9 88 1.0 SW 7 15 4 8 1017.5 1016.4 2.2
18/10:00pm 10.7 8.8 9.1 90 0.8 SW 9 15 5 8 1017.4 1016.3 2.2
18/09:30pm 11.2 8.7 8.1 81 1.5 SW 11 15 6 8 1017.4 1016.3 2.0
18/09:00pm 11.9 8.8 7.2 73 2.3 SSW 13 24 7 13 1017.1 1016.1 2.0
18/08:30pm 11.3 8.9 8.7 84 1.3 SW 11 19 6 10 1016.9 1015.9 2.0
18/08:00pm 11.9 7.8 8.0 77 1.9 SSW 19 30 10 16 1016.8 1015.8 1.8
18/07:30pm 11.7 8.6 8.9 83 1.4 SSW 15 20 8 11 1016.5 1015.5 1.8
18/07:00pm 12.8 8.7 7.9 72 2.5 SSW 19 28 10 15 1016.2 1015.2 1.4
18/06:30pm 13.3 8.6 7.7 69 2.8 SSW 22 33 12 18 1016.1 1015.1 1.4
18/06:00pm 13.4 9.6 8.9 74 2.3 SSW 19 30 10 16 1016.0 1015.0 1.4
18/05:30pm 13.3 9.0 9.4 77 2.0 S 22 33 12 18 1016.0 1015.0 1.4
18/05:00pm 13.7 8.8 7.0 64 3.3 S 22 33 12 18 1015.8 1014.8 1.4
18/04:30pm 13.9 8.5 7.9 67 3.0 SSW 26 35 14 19 1015.9 1014.9 1.4
18/04:00pm 14.5 8.8 8.2 66 3.2 SSW 28 37 15 20 1016.1 1015.1 1.4
18/03:30pm 14.3 9.3 9.5 73 2.5 SSW 26 39 14 21 1016.2 1015.2 1.4
18/03:00pm 14.4 9.4 7.9 65 3.3 SSW 24 33 13 18 1016.2 1015.2 1.4
18/02:30pm 14.6 9.8 7.4 62 3.6 SW 22 33 12 18 1016.3 1015.3 1.4
18/02:00pm 14.1 9.8 9.3 73 2.5 SW 22 35 12 19 1016.3 1015.3 1.4
18/01:30pm 12.7 8.7 8.4 75 2.2 SSW 19 33 10 18 1016.2 1015.2 1.4
18/01:00pm 12.8 9.2 10.0 83 1.5 SSW 19 28 10 15 1016.1 1015.1 1.4
18/12:30pm 14.0 10.8 9.8 76 2.2 SSW 17 41 9 22 1016.1 1015.1 1.2
18/12:00pm 13.4 9.8 10.0 80 1.8 SSW 19 26 10 14 1016.3 1015.3 1.2

Other Formats:

Comma delimited format used in spreadsheet applications
http://www.bom.gov.au/fwo/IDS60801/IDS60801.94811.axf

JavaScript Object Notation format (JSON) in row-major order
http://www.bom.gov.au/fwo/IDS60801/IDS60801.94811.json